Arauca, Colombia

3:41 PM COT on December 22, 2014 (GMT -0500)
Santiago Perez | Change Station
CLOSE
Current Station
Airport
Location: Arauca,
Elevation: 420 ft
Nearby Weather Stations

Elev 420 ft 7.07 °N, 70.74 °W | Updated 1 hour ago

Scattered Clouds
Scattered Clouds
90 °F
Feels Like 95 °F
N
2
Wind Variable Wind from Variable

Today
High -- | Low -- °F
--% Chance of Precip.
Yesterday
High -- | Low -- °F
Precip. -- in
5:50 AM 5:33 PM
New Moon, 1% visible
Pressure 29.86 in
Visibility 6.2 miles
Clouds Scattered Clouds 2700 ft
Heat Index 95 °F
Dew Point 70 °F
Humidity 52%
Rainfall 0.00 in
Snow Depth Not available.
UV 7 out of 12
Pollen Not available.
Air Quality Not available.
Flu Activity Not available.
METAR SKUC 221900Z VRB02KT 9999 SCT027 32/21 A2986

More Conditions Fewer Conditions

Pressure 29.86 in
Visibility 6.2 miles
Clouds Scattered Clouds 2700 ft
Heat Index 95 °F
Dew Point 70 °F
Humidity 52%
Rainfall 0.00 in
Snow Depth Not available.
UV 7 out of 12
Pollen Not available.
Air Quality Not available.
Flu Activity Not available.
METAR SKUC 221900Z VRB02KT 9999 SCT027 32/21 A2986

More Conditions Fewer Conditions

10-Day Weather Forecast

Almanac

Astronomy

Dec. 22, 2014 Rise Set
Actual Time
Civil Twilight
Nautical Twilight
Astronomical Twilight
Moon
Length of Visible Light
Length of Day
Tomorrow will be .
, % of the Moon is Illuminated

Today's Extremes

Country Highs Country Lows

Community

WunderPhotos

Upload Photos

1,779,676 photos uploaded!

WunderBlogs® & News

Nearby

Air Quality

  Air Quality AQ Index Pollutant
Not available.

Snow Depth

Station Depth Elevation

Earthquake Activity

City Distance Mag. Time & Date
Minimum magnitude displayed is 2.5.

Coastal Water Temperatures

Place Temperature

Nearby Weather Stations